Time;durP1;ratioP1;P1;durP2;ratioP2;P2;SDS_P1;SDS_P2;PMS_P1;PMS_P2;Temp;Humidity;BMP_temperature;BMP_pressure;BME280_temperature;BME280_humidity;BME280_pressure;Samples;Min_cycle;Max_cycle;Signal;HPM_P1;HPM_P2
2021/10/14 00:00:27;;;;;;;5.32;4.55;;;6.10;99.90;;;;;;5089361;28;20238;-79
2021/10/14 00:02:56;;;;;;;8.02;5.22;;;6.20;99.90;;;;;;5083460;28;20310;-81
2021/10/14 00:05:23;;;;;;;6.00;4.40;;;6.20;99.90;;;;;;5083219;28;20202;-81
2021/10/14 00:07:49;;;;;;;5.03;4.30;;;6.20;99.90;;;;;;5082752;28;20263;-81
2021/10/14 00:10:16;;;;;;;8.02;4.45;;;6.10;99.90;;;;;;5082013;28;20211;-80
2021/10/14 00:12:43;;;;;;;5.55;4.47;;;6.20;99.90;;;;;;5082386;28;20242;-79
2021/10/14 00:15:10;;;;;;;6.18;4.65;;;6.20;99.90;;;;;;5082026;28;20249;-80
2021/10/14 00:17:37;;;;;;;5.18;4.68;;;6.20;99.90;;;;;;5080801;28;20210;-79
2021/10/14 00:20:07;;;;;;;5.00;3.95;;;6.20;99.90;;;;;;5088267;28;20215;-80
2021/10/14 00:22:34;;;;;;;5.95;4.57;;;6.20;99.90;;;;;;5090950;28;20226;-79
2021/10/14 00:25:01;;;;;;;7.35;4.20;;;6.20;99.90;;;;;;5082224;28;20205;-79
2021/10/14 00:27:29;;;;;;;6.88;5.00;;;6.20;99.90;;;;;;5082658;28;20305;-80
2021/10/14 00:29:56;;;;;;;4.35;3.95;;;6.30;99.90;;;;;;5081982;28;20234;-80
2021/10/14 00:32:23;;;;;;;6.47;4.65;;;6.40;99.90;;;;;;5081117;28;20232;-80
2021/10/14 00:34:50;;;;;;;4.65;3.50;;;6.40;99.90;;;;;;5085865;28;20203;-79
2021/10/14 00:37:18;;;;;;;4.68;3.70;;;6.30;99.90;;;;;;5086830;28;20220;-80
2021/10/14 00:39:45;;;;;;;4.13;3.50;;;6.40;99.90;;;;;;5084121;28;20241;-79
2021/10/14 00:42:12;;;;;;;6.68;4.00;;;6.40;99.90;;;;;;5082745;28;20237;-80
2021/10/14 00:44:44;;;;;;;4.85;4.05;;;6.30;99.90;;;;;;5084940;28;20208;-80
2021/10/14 00:47:11;;;;;;;5.57;4.07;;;6.30;99.90;;;;;;5086630;28;20208;-80
2021/10/14 00:49:38;;;;;;;5.78;4.05;;;6.40;99.90;;;;;;5087809;28;20207;-80
2021/10/14 00:52:05;;;;;;;6.45;4.15;;;6.20;99.90;;;;;;5101584;28;20210;-77
2021/10/14 00:54:33;;;;;;;4.82;3.88;;;6.30;99.90;;;;;;5101205;28;20214;-78
2021/10/14 00:57:01;;;;;;;4.53;4.13;;;6.30;99.90;;;;;;5083880;28;20223;-80
2021/10/14 00:59:30;;;;;;;6.63;3.50;;;6.40;99.90;;;;;;5083143;28;20286;-80
2021/10/14 01:01:57;;;;;;;5.20;3.78;;;6.30;99.90;;;;;;5082023;28;20235;-80
2021/10/14 01:04:24;;;;;;;4.22;3.53;;;6.30;99.90;;;;;;5082487;28;20238;-79
2021/10/14 01:06:51;;;;;;;5.07;3.80;;;6.20;99.90;;;;;;5084972;28;20210;-80
2021/10/14 01:09:18;;;;;;;5.05;4.50;;;6.30;99.90;;;;;;5099705;28;20214;-79
2021/10/14 01:11:46;;;;;;;4.43;3.60;;;6.20;99.90;;;;;;5098067;28;20239;-80
2021/10/14 01:14:13;;;;;;;4.05;3.42;;;6.10;99.90;;;;;;5097933;28;20219;-80
2021/10/14 01:16:41;;;;;;;6.32;3.70;;;6.00;99.90;;;;;;5096498;28;20228;-80
2021/10/14 01:19:08;;;;;;;4.22;3.70;;;6.00;99.90;;;;;;5090147;28;20728;-80
2021/10/14 01:21:37;;;;;;;3.80;3.45;;;6.00;99.90;;;;;;5083152;28;20218;-80
2021/10/14 01:24:05;;;;;;;3.63;3.30;;;6.00;99.90;;;;;;5082899;28;20230;-80
2021/10/14 01:26:32;;;;;;;8.23;4.75;;;5.90;99.90;;;;;;5084946;28;20280;-80
2021/10/14 01:28:59;;;;;;;5.78;4.03;;;5.90;99.90;;;;;;5090010;28;20216;-79
2021/10/14 01:31:27;;;;;;;5.68;3.70;;;5.90;99.90;;;;;;5090937;28;20297;-80
2021/10/14 01:33:55;;;;;;;3.83;3.40;;;5.90;99.90;;;;;;5089987;28;20292;-79
2021/10/14 01:36:22;;;;;;;4.75;4.25;;;5.90;99.90;;;;;;5089242;28;20260;-79
2021/10/14 01:38:51;;;;;;;3.28;2.97;;;5.80;99.90;;;;;;5092486;28;20208;-79
2021/10/14 01:41:18;;;;;;;8.13;3.70;;;5.80;99.90;;;;;;5087045;28;20210;-80
2021/10/14 01:43:45;;;;;;;6.47;4.57;;;5.70;99.90;;;;;;5091029;28;20237;-80
2021/10/14 01:46:13;;;;;;;4.20;3.80;;;5.60;99.90;;;;;;5095568;28;20228;-80
2021/10/14 01:48:40;;;;;;;5.47;3.78;;;5.60;99.90;;;;;;5095682;28;20231;-79
2021/10/14 01:51:10;;;;;;;4.68;4.22;;;5.60;99.90;;;;;;5093894;28;20306;-79
2021/10/14 01:53:37;;;;;;;4.30;3.47;;;5.60;99.90;;;;;;5088641;28;20230;-80
2021/10/14 01:56:06;;;;;;;4.45;3.55;;;5.50;99.90;;;;;;5092546;28;20209;-80
2021/10/14 01:58:33;;;;;;;5.63;3.70;;;5.40;99.90;;;;;;5097072;28;20225;-80
2021/10/14 02:00:59;;;;;;;5.40;3.55;;;5.40;99.90;;;;;;5097435;28;20338;-78
2021/10/14 02:03:26;;;;;;;5.25;3.70;;;5.40;99.90;;;;;;5097201;28;20339;-79
2021/10/14 02:05:53;;;;;;;4.18;3.55;;;5.40;99.90;;;;;;5096395;28;20263;-79
2021/10/14 02:08:20;;;;;;;5.13;4.30;;;5.40;99.90;;;;;;5097190;28;20238;-79
2021/10/14 02:10:47;;;;;;;5.00;4.00;;;5.40;99.90;;;;;;5096931;28;20240;-80
2021/10/14 02:13:15;;;;;;;4.88;3.88;;;5.40;99.90;;;;;;5097843;28;20227;-78
2021/10/14 02:15:42;;;;;;;4.85;4.32;;;5.40;99.90;;;;;;5098196;28;20241;-79
2021/10/14 02:18:09;;;;;;;4.88;4.47;;;5.40;99.90;;;;;;5099439;28;20218;-78
2021/10/14 02:20:36;;;;;;;5.07;3.65;;;5.30;99.90;;;;;;5099935;28;20190;-78
2021/10/14 02:23:03;;;;;;;5.05;4.43;;;5.30;99.90;;;;;;5098807;28;20234;-79
2021/10/14 02:25:30;;;;;;;4.97;4.47;;;5.30;99.90;;;;;;5093353;28;20294;-80
2021/10/14 02:27:57;;;;;;;8.27;3.80;;;5.30;99.90;;;;;;5095281;28;20262;-79
2021/10/14 02:30:25;;;;;;;5.60;4.15;;;5.30;99.90;;;;;;5098518;28;20308;-78
2021/10/14 02:32:52;;;;;;;3.95;3.53;;;5.20;99.90;;;;;;5090575;28;20291;-80
2021/10/14 02:35:19;;;;;;;5.07;4.18;;;5.30;99.90;;;;;;5091416;28;20206;-76
2021/10/14 02:37:45;;;;;;;4.60;3.65;;;5.30;99.90;;;;;;5099719;28;20244;-77
2021/10/14 02:40:13;;;;;;;5.47;4.20;;;5.30;99.90;;;;;;5088999;28;20208;-80
2021/10/14 02:42:40;;;;;;;5.35;4.15;;;5.30;99.90;;;;;;5093619;28;20237;-80
2021/10/14 02:45:08;;;;;;;7.15;4.10;;;5.30;99.90;;;;;;5096504;28;20210;-79
2021/10/14 02:47:36;;;;;;;5.15;4.00;;;5.30;99.90;;;;;;5097279;28;20216;-78
2021/10/14 02:50:03;;;;;;;7.72;4.47;;;5.30;99.90;;;;;;5096431;28;20205;-78
2021/10/14 02:52:30;;;;;;;4.03;3.67;;;5.30;99.90;;;;;;5097256;28;20289;-81
2021/10/14 02:54:56;;;;;;;6.10;4.22;;;5.40;99.90;;;;;;5097130;28;20202;-79
2021/10/14 02:57:23;;;;;;;5.35;3.97;;;5.30;99.90;;;;;;5095597;28;20222;-79
2021/10/14 02:59:50;;;;;;;4.18;3.67;;;5.30;99.90;;;;;;5093871;28;20676;-80
2021/10/14 03:02:17;;;;;;;4.10;3.78;;;5.30;99.90;;;;;;5083636;28;20421;-80
2021/10/14 03:04:45;;;;;;;4.18;3.70;;;5.40;99.90;;;;;;5090627;28;20211;-78
2021/10/14 03:07:12;;;;;;;5.78;4.22;;;5.40;99.90;;;;;;5094243;28;20746;-78
2021/10/14 03:09:40;;;;;;;4.28;3.47;;;5.30;99.90;;;;;;5092835;28;20246;-80
2021/10/14 03:12:07;;;;;;;4.53;3.13;;;5.30;99.90;;;;;;5089550;28;20290;-79
2021/10/14 03:14:33;;;;;;;5.95;3.70;;;5.20;99.90;;;;;;5093303;28;20206;-80
2021/10/14 03:17:00;;;;;;;3.55;3.25;;;5.20;99.90;;;;;;5093263;28;20228;-80
2021/10/14 03:19:27;;;;;;;5.13;3.55;;;5.10;99.90;;;;;;5095864;28;20213;-80
2021/10/14 03:21:56;;;;;;;4.40;3.53;;;5.10;99.90;;;;;;5095006;28;20297;-79
2021/10/14 03:24:22;;;;;;;3.80;3.00;;;5.00;99.90;;;;;;5093784;28;20190;-81
2021/10/14 03:26:49;;;;;;;8.35;3.90;;;5.00;99.90;;;;;;5091978;28;20221;-80
2021/10/14 03:29:16;;;;;;;5.00;3.55;;;5.00;99.90;;;;;;5085506;28;20206;-79
2021/10/14 03:31:43;;;;;;;4.00;3.55;;;5.00;99.90;;;;;;5081578;28;20210;-80
2021/10/14 03:34:10;;;;;;;3.40;3.10;;;5.00;99.90;;;;;;5080286;28;20211;-80
2021/10/14 03:36:37;;;;;;;6.32;4.07;;;5.00;99.90;;;;;;5080534;28;20253;-80
2021/10/14 03:39:05;;;;;;;7.60;3.20;;;5.00;99.90;;;;;;5079792;28;20301;-79
2021/10/14 03:41:32;;;;;;;5.25;3.17;;;4.90;99.90;;;;;;5079915;28;20216;-80
2021/10/14 03:43:59;;;;;;;6.80;3.47;;;4.90;99.90;;;;;;5080084;28;20238;-80
2021/10/14 03:46:26;;;;;;;6.03;3.20;;;4.90;99.90;;;;;;5079866;28;20206;-80
2021/10/14 03:48:52;;;;;;;4.82;3.13;;;4.90;99.90;;;;;;5081283;28;20210;-80
2021/10/14 03:51:19;;;;;;;4.47;3.33;;;5.00;99.90;;;;;;5080231;28;20216;-80
2021/10/14 03:53:46;;;;;;;3.58;3.28;;;5.00;99.90;;;;;;5080233;28;20229;-82
2021/10/14 03:56:15;;;;;;;4.45;3.78;;;5.10;99.90;;;;;;5080465;28;20228;-79
2021/10/14 03:58:42;;;;;;;4.18;3.38;;;5.10;99.90;;;;;;5081307;28;20232;-80
2021/10/14 04:01:08;;;;;;;3.45;3.15;;;5.10;99.90;;;;;;5080856;28;20214;-79
2021/10/14 04:03:35;;;;;;;4.90;3.08;;;5.20;99.90;;;;;;5080616;28;20227;-80
2021/10/14 04:06:02;;;;;;;3.88;3.47;;;5.20;99.90;;;;;;5079388;28;20238;-80
2021/10/14 04:08:29;;;;;;;3.40;3.10;;;5.30;99.90;;;;;;5078724;28;20216;-79
2021/10/14 04:10:56;;;;;;;4.65;3.13;;;5.20;99.90;;;;;;5078629;28;20205;-79
2021/10/14 04:13:24;;;;;;;7.20;4.00;;;5.20;99.90;;;;;;5079754;28;20225;-79
2021/10/14 04:15:51;;;;;;;5.13;3.85;;;5.20;99.90;;;;;;5079830;28;20211;-79
2021/10/14 04:18:18;;;;;;;4.25;3.65;;;5.20;99.90;;;;;;5080340;28;20678;-79
2021/10/14 04:20:45;;;;;;;4.82;3.33;;;5.20;99.90;;;;;;5094816;28;20222;-80
2021/10/14 04:23:12;;;;;;;4.40;3.28;;;5.20;99.90;;;;;;5081738;28;20222;-80
2021/10/14 04:25:39;;;;;;;4.50;3.40;;;5.20;99.90;;;;;;5081410;28;20301;-80
2021/10/14 04:28:06;;;;;;;4.25;3.45;;;5.20;99.90;;;;;;5080389;28;20293;-80
2021/10/14 04:30:34;;;;;;;4.55;3.90;;;5.20;99.90;;;;;;5081042;28;20210;-78
2021/10/14 04:33:01;;;;;;;4.82;3.70;;;5.20;99.90;;;;;;5087498;28;20293;-78
2021/10/14 04:35:28;;;;;;;6.20;4.07;;;5.20;99.90;;;;;;5089049;28;20275;-78
2021/10/14 04:37:55;;;;;;;4.95;3.85;;;5.10;99.90;;;;;;5087017;28;20226;-78
2021/10/14 04:40:22;;;;;;;4.18;3.40;;;5.10;99.90;;;;;;5095530;28;20261;-78
2021/10/14 04:42:49;;;;;;;6.75;3.40;;;5.20;99.90;;;;;;5077713;28;20241;-79
2021/10/14 04:45:16;;;;;;;6.13;3.40;;;5.20;99.90;;;;;;5078224;28;20234;-80
2021/10/14 04:47:45;;;;;;;3.88;3.40;;;5.20;99.90;;;;;;5091369;28;20194;-78
2021/10/14 04:50:12;;;;;;;5.72;4.10;;;5.20;99.90;;;;;;5097206;28;20224;-79
2021/10/14 04:52:39;;;;;;;5.15;4.22;;;5.20;99.90;;;;;;5093721;28;20268;-79
2021/10/14 04:55:07;;;;;;;5.78;4.25;;;5.20;99.90;;;;;;5094095;28;20229;-80
2021/10/14 04:57:33;;;;;;;4.18;3.40;;;5.20;99.90;;;;;;5091999;28;20317;-79
2021/10/14 05:00:01;;;;;;;4.15;3.50;;;5.10;99.90;;;;;;5091025;28;20214;-81
2021/10/14 05:02:27;;;;;;;7.50;4.28;;;5.00;99.90;;;;;;5079980;28;20226;-79
2021/10/14 05:04:56;;;;;;;5.55;4.18;;;5.00;99.90;;;;;;5079762;28;20238;-79
2021/10/14 05:07:22;;;;;;;6.10;3.95;;;5.00;99.90;;;;;;5078475;28;20202;-80
2021/10/14 05:09:49;;;;;;;3.75;3.33;;;5.00;99.90;;;;;;5075821;28;20218;-80
2021/10/14 05:12:16;;;;;;;4.15;3.58;;;5.00;99.90;;;;;;5075067;28;20231;-80
2021/10/14 05:14:43;;;;;;;6.00;3.70;;;5.00;99.90;;;;;;5075219;28;20202;-81
2021/10/14 05:17:10;;;;;;;5.07;3.47;;;5.10;99.90;;;;;;5075065;28;20234;-80
2021/10/14 05:19:37;;;;;;;4.32;3.42;;;5.10;99.90;;;;;;5078618;28;20296;-80
2021/10/14 05:22:05;;;;;;;5.00;3.90;;;5.10;99.90;;;;;;5084089;28;20250;-81
2021/10/14 05:24:32;;;;;;;3.95;3.55;;;5.10;99.90;;;;;;5086127;28;20223;-83
2021/10/14 05:26:59;;;;;;;4.57;3.30;;;5.10;99.90;;;;;;5084942;28;20233;-80
2021/10/14 05:29:26;;;;;;;6.25;4.05;;;5.20;99.90;;;;;;5090336;28;20217;-79
2021/10/14 05:31:53;;;;;;;4.72;3.35;;;5.20;99.90;;;;;;5099998;28;20202;-79
2021/10/14 05:34:20;;;;;;;5.90;4.00;;;5.30;99.90;;;;;;5088197;28;20219;-79
2021/10/14 05:36:46;;;;;;;5.07;3.90;;;5.30;99.90;;;;;;5096804;28;20288;-78
2021/10/14 05:39:15;;;;;;;6.15;4.22;;;5.30;99.90;;;;;;5097268;28;20270;-79
2021/10/14 05:41:41;;;;;;;5.13;4.25;;;5.30;99.90;;;;;;5099930;28;20192;-80
2021/10/14 05:44:08;;;;;;;6.28;3.80;;;5.20;99.90;;;;;;5083187;28;20214;-80
2021/10/14 05:46:36;;;;;;;7.82;3.88;;;5.30;99.90;;;;;;5080260;28;20738;-80
2021/10/14 05:49:03;;;;;;;5.30;3.88;;;5.30;99.90;;;;;;5081403;28;20218;-80
2021/10/14 05:51:30;;;;;;;6.47;4.80;;;5.30;99.90;;;;;;5081706;28;20743;-80
2021/10/14 05:53:57;;;;;;;7.22;4.70;;;5.40;99.90;;;;;;5081454;28;20210;-80
2021/10/14 05:56:25;;;;;;;9.80;5.35;;;5.40;99.90;;;;;;5082292;28;20269;-80
2021/10/14 05:58:53;;;;;;;5.82;4.70;;;5.50;99.90;;;;;;5085264;28;20214;-80
2021/10/14 06:01:20;;;;;;;9.23;5.15;;;5.60;99.90;;;;;;5083495;28;20218;-80
2021/10/14 06:03:47;;;;;;;8.18;5.47;;;5.70;99.90;;;;;;5080269;28;20251;-80
2021/10/14 06:06:14;;;;;;;10.68;5.40;;;5.80;99.90;;;;;;5085341;28;20229;-79
2021/10/14 06:08:41;;;;;;;7.38;5.72;;;5.90;99.90;;;;;;5085847;28;20268;-80
2021/10/14 06:11:08;;;;;;;6.43;4.78;;;6.00;99.90;;;;;;5085978;28;20227;-80
2021/10/14 06:13:37;;;;;;;7.47;4.90;;;6.10;99.90;;;;;;5079084;28;20697;-80
2021/10/14 06:16:05;;;;;;;7.20;4.80;;;6.10;99.90;;;;;;5078716;28;20297;-80
2021/10/14 06:18:32;;;;;;;9.98;4.93;;;6.20;99.90;;;;;;5079371;28;20240;-79
2021/10/14 06:20:59;;;;;;;9.15;5.45;;;6.30;99.90;;;;;;5080133;28;20219;-79
2021/10/14 06:23:28;;;;;;;5.85;4.60;;;6.30;99.90;;;;;;5080368;28;20224;-80
2021/10/14 06:25:55;;;;;;;6.32;4.55;;;6.30;99.90;;;;;;5079580;28;20225;-80
2021/10/14 06:28:22;;;;;;;6.60;4.80;;;6.40;99.90;;;;;;5081033;28;20220;-81
2021/10/14 06:30:51;;;;;;;5.65;4.70;;;6.40;99.90;;;;;;5089674;28;20208;-81
2021/10/14 06:33:18;;;;;;;5.82;4.40;;;6.50;99.90;;;;;;5088055;28;20244;-80
2021/10/14 06:35:45;;;;;;;9.40;4.93;;;6.50;99.90;;;;;;5078803;28;20299;-80
2021/10/14 06:38:12;;;;;;;6.28;4.60;;;6.50;99.60;;;;;;5079937;28;20712;-79
2021/10/14 06:40:39;;;;;;;7.53;4.65;;;6.50;99.20;;;;;;5081469;28;20217;-80
2021/10/14 06:43:06;;;;;;;6.32;4.38;;;6.60;98.90;;;;;;5081446;28;20243;-80
2021/10/14 06:45:33;;;;;;;6.50;4.68;;;6.70;98.60;;;;;;5086240;28;20238;-81
2021/10/14 06:48:01;;;;;;;7.28;5.00;;;6.70;97.50;;;;;;5089299;28;20208;-80
2021/10/14 06:50:29;;;;;;;5.07;4.20;;;6.70;96.80;;;;;;5082157;28;20240;-80
2021/10/14 06:52:56;;;;;;;6.68;4.25;;;6.80;96.40;;;;;;5090925;28;20212;-79
2021/10/14 06:55:23;;;;;;;5.82;4.55;;;6.80;95.10;;;;;;5097904;28;20784;-80
2021/10/14 06:57:50;;;;;;;5.30;4.03;;;6.90;94.80;;;;;;5090132;28;20231;-78
2021/10/14 07:00:22;;;;;;;5.43;4.80;;;7.00;94.60;;;;;;5097477;28;20215;-80
2021/10/14 07:02:52;;;;;;;6.82;4.78;;;7.00;93.40;;;;;;5083166;28;20644;-80
2021/10/14 07:05:20;;;;;;;4.72;4.20;;;7.00;92.40;;;;;;5079523;28;20203;-81
2021/10/14 07:07:47;;;;;;;4.25;3.65;;;7.00;92.00;;;;;;5079701;28;20291;-79
2021/10/14 07:10:15;;;;;;;7.22;4.18;;;7.10;91.70;;;;;;5078253;28;20587;-79
2021/10/14 07:12:43;;;;;;;8.50;4.25;;;7.10;91.50;;;;;;5079957;28;20228;-80
2021/10/14 07:15:10;;;;;;;6.90;4.70;;;7.20;91.40;;;;;;5083577;28;20220;-82
2021/10/14 07:17:38;;;;;;;5.13;3.85;;;7.30;90.70;;;;;;5080514;28;20314;-80
2021/10/14 07:20:06;;;;;;;7.40;4.38;;;7.30;90.30;;;;;;5085819;28;20208;-80
2021/10/14 07:22:35;;;;;;;9.55;3.80;;;7.40;89.70;;;;;;5091544;28;20259;-79
2021/10/14 07:25:02;;;;;;;5.47;4.85;;;7.50;88.80;;;;;;5093231;28;20215;-80
2021/10/14 07:27:28;;;;;;;4.63;3.53;;;7.60;87.20;;;;;;5093885;28;20215;-81
2021/10/14 07:29:55;;;;;;;4.30;3.33;;;7.60;86.20;;;;;;5092091;28;20212;-81
2021/10/14 07:32:22;;;;;;;5.20;4.70;;;7.70;86.50;;;;;;5079835;28;20232;-81
2021/10/14 07:34:49;;;;;;;6.82;4.18;;;7.70;85.30;;;;;;5080675;28;20197;-81
2021/10/14 07:37:19;;;;;;;8.35;4.55;;;7.80;85.60;;;;;;5081890;28;20220;-81
2021/10/14 07:39:47;;;;;;;5.90;4.22;;;7.80;86.10;;;;;;5080941;28;20202;-80
2021/10/14 07:42:14;;;;;;;5.00;4.20;;;7.90;85.40;;;;;;5081605;28;20233;-79
2021/10/14 07:44:41;;;;;;;6.20;3.80;;;8.00;84.00;;;;;;5081598;28;20252;-80
2021/10/14 07:47:08;;;;;;;6.60;4.40;;;8.10;84.20;;;;;;5079510;28;20572;-80
2021/10/14 07:49:35;;;;;;;8.50;4.35;;;8.40;84.30;;;;;;5075149;28;20608;-79
2021/10/14 07:52:02;;;;;;;4.88;3.63;;;8.40;82.10;;;;;;5077021;28;20320;-79
2021/10/14 07:54:29;;;;;;;6.68;4.82;;;8.60;80.30;;;;;;5077047;28;20213;-80
2021/10/14 07:56:57;;;;;;;5.35;4.20;;;8.70;79.00;;;;;;5076674;28;20272;-80
2021/10/14 07:59:24;;;;;;;4.22;3.53;;;8.90;77.70;;;;;;5075992;28;20217;-81
2021/10/14 08:01:51;;;;;;;6.30;4.35;;;8.90;77.20;;;;;;5078972;28;20206;-82
2021/10/14 08:04:17;;;;;;;5.68;4.85;;;8.90;76.30;;;;;;5079092;28;20197;-81
2021/10/14 08:06:44;;;;;;;5.50;4.30;;;9.00;76.40;;;;;;5079374;28;20209;-81
2021/10/14 08:09:11;;;;;;;7.38;4.75;;;8.90;76.30;;;;;;5087431;28;20228;-79
2021/10/14 08:11:38;;;;;;;6.18;4.38;;;8.90;76.30;;;;;;5077989;28;20212;-79
2021/10/14 08:14:07;;;;;;;7.32;4.70;;;8.80;75.70;;;;;;5076012;28;20292;-79
2021/10/14 08:16:34;;;;;;;6.82;4.97;;;8.80;76.20;;;;;;5068167;28;20205;-79
2021/10/14 08:19:01;;;;;;;7.30;4.72;;;8.90;76.30;;;;;;5077533;28;20324;-81
2021/10/14 08:21:28;;;;;;;9.07;4.20;;;9.00;76.40;;;;;;5075214;28;20293;-79
2021/10/14 08:23:55;;;;;;;6.95;5.18;;;9.10;76.50;;;;;;5075160;28;20232;-79
2021/10/14 08:26:21;;;;;;;5.00;4.50;;;9.30;74.70;;;;;;5077749;28;20270;-79
2021/10/14 08:28:48;;;;;;;5.72;5.13;;;9.50;73.90;;;;;;5078864;28;20225;-79
2021/10/14 08:31:16;;;;;;;4.45;3.83;;;9.70;73.30;;;;;;5095364;28;20320;-79
2021/10/14 08:33:44;;;;;;;4.03;3.70;;;9.80;70.80;;;;;;5090531;28;20264;-81
2021/10/14 08:36:12;;;;;;;3.95;3.55;;;9.80;70.70;;;;;;5080984;28;20210;-81
2021/10/14 08:38:39;;;;;;;3.97;3.42;;;9.80;70.60;;;;;;5095889;28;20206;-79
2021/10/14 08:41:05;;;;;;;4.50;3.75;;;10.00;69.40;;;;;;5085860;28;20201;-79
2021/10/14 08:43:36;;;;;;;4.95;4.40;;;10.10;69.00;;;;;;5093008;28;20289;-80
2021/10/14 08:46:04;;;;;;;5.43;4.07;;;10.20;68.90;;;;;;5097252;28;20193;-78
2021/10/14 08:48:32;;;;;;;4.68;4.28;;;10.50;68.00;;;;;;5085065;28;20236;-80
2021/10/14 08:50:59;;;;;;;4.25;3.75;;;10.60;66.70;;;;;;5074528;28;20297;-80
2021/10/14 08:53:26;;;;;;;4.65;4.18;;;10.70;65.40;;;;;;5075420;28;20260;-80
2021/10/14 08:55:53;;;;;;;6.00;4.30;;;10.80;65.00;;;;;;5079544;28;20228;-78
2021/10/14 08:58:20;;;;;;;4.55;3.60;;;11.10;64.10;;;;;;5078203;28;20237;-79
2021/10/14 09:01:08;;;;;;;3.80;3.40;;;11.30;63.10;;;;;;5079196;28;20638;-79
2021/10/14 09:03:39;;;;;;;7.32;4.30;;;11.70;61.40;;;;;;5079011;28;20222;-78
2021/10/14 09:06:10;;;;;;;6.68;4.90;;;11.80;60.30;;;;;;5079413;28;20183;-78
2021/10/14 09:08:39;;;;;;;4.07;3.70;;;12.00;60.50;;;;;;5078402;28;20207;-78
2021/10/14 09:11:09;;;;;;;6.05;4.28;;;12.30;59.10;;;;;;5078477;28;20267;-79
2021/10/14 09:13:36;;;;;;;4.97;3.90;;;12.40;57.00;;;;;;5079637;28;20300;-78
2021/10/14 09:16:28;;;;;;;5.22;3.83;;;12.50;57.20;;;;;;5095661;28;20207;-80
2021/10/14 09:18:57;;;;;;;4.30;3.85;;;12.80;57.40;;;;;;5084121;28;20223;-80
2021/10/14 09:21:27;;;;;;;4.20;3.55;;;13.10;56.10;;;;;;5094898;28;20204;-79
2021/10/14 09:23:55;;;;;;;6.13;4.40;;;13.20;54.40;;;;;;5083187;28;20231;-78
2021/10/14 09:26:31;;;;;;;6.78;3.85;;;13.20;54.00;;;;;;5077434;28;20569;-78
2021/10/14 09:29:09;;;;;;;6.10;4.15;;;13.20;55.00;;;;;;5076765;28;20204;-78
2021/10/14 09:31:54;;;;;;;5.97;3.63;;;13.20;54.40;;;;;;5076334;28;20675;-78
2021/10/14 09:34:37;;;;;;;6.88;4.10;;;13.10;53.90;;;;;;5076808;28;20206;-78
2021/10/14 09:37:07;;;;;;;5.50;4.05;;;12.90;54.50;;;;;;5077543;28;20207;-79
2021/10/14 09:39:34;;;;;;;6.28;4.28;;;13.00;54.40;;;;;;5077817;28;20718;-80
2021/10/14 09:42:01;;;;;;;6.80;4.30;;;12.80;55.60;;;;;;5080314;28;20639;-81
2021/10/14 09:44:28;;;;;;;4.90;4.40;;;12.80;54.90;;;;;;5076145;28;20242;-79
2021/10/14 09:46:56;;;;;;;7.93;4.80;;;13.00;54.70;;;;;;5077724;28;20300;-80
2021/10/14 09:49:29;;;;;;;7.13;4.03;;;13.20;54.60;;;;;;5035387;28;20236;-79
2021/10/14 09:52:00;;;;;;;4.85;3.80;;;13.40;52.40;;;;;;5026512;28;20231;-78
2021/10/14 09:54:27;;;;;;;6.85;3.90;;;13.60;52.60;;;;;;5046277;28;20616;-78
2021/10/14 09:56:54;;;;;;;8.93;4.68;;;13.80;52.80;;;;;;5037330;28;20237;-77
2021/10/14 09:59:21;;;;;;;5.35;3.90;;;14.00;53.00;;;;;;5044781;28;20221;-78
2021/10/14 10:01:50;;;;;;;6.93;4.50;;;14.20;52.30;;;;;;5044224;28;20233;-78
2021/10/14 10:04:21;;;;;;;8.65;4.55;;;14.10;50.90;;;;;;5040288;28;20264;-80
2021/10/14 10:06:50;;;;;;;9.40;4.65;;;13.80;51.10;;;;;;5042438;28;20222;-81
2021/10/14 10:09:20;;;;;;;8.05;4.20;;;13.60;51.40;;;;;;5039078;28;20200;-80
2021/10/14 10:11:51;;;;;;;8.15;5.00;;;13.50;52.50;;;;;;5039445;28;20207;-80
2021/10/14 10:14:22;;;;;;;9.27;4.93;;;13.60;51.70;;;;;;5045682;28;20285;-81
2021/10/14 10:16:56;;;;;;;5.15;3.75;;;13.40;51.70;;;;;;5049964;28;20201;-80
2021/10/14 10:19:43;;;;;;;7.38;4.40;;;13.40;52.40;;;;;;5038767;28;20223;-82
2021/10/14 10:22:12;;;;;;;5.05;4.40;;;13.40;52.40;;;;;;5040517;28;20233;-79
2021/10/14 10:24:39;;;;;;;5.57;4.53;;;13.50;52.30;;;;;;5040315;28;20244;-80
2021/10/14 10:27:10;;;;;;;5.82;5.00;;;13.50;52.50;;;;;;5038807;28;20247;-79
2021/10/14 10:29:48;;;;;;;7.82;5.28;;;13.50;52.50;;;;;;5039749;28;20210;-80
2021/10/14 10:32:23;;;;;;;8.15;4.60;;;13.60;52.40;;;;;;5040402;28;20297;-81
2021/10/14 10:35:07;;;;;;;5.53;4.30;;;13.90;51.80;;;;;;5035243;28;20245;-79
2021/10/14 10:37:43;;;;;;;11.55;4.70;;;14.30;50.70;;;;;;5039311;28;20245;-80
2021/10/14 10:40:22;;;;;;;5.78;4.22;;;14.60;49.10;;;;;;5045821;28;20246;-80
2021/10/14 10:42:53;;;;;;;7.45;4.30;;;14.70;48.60;;;;;;5049995;28;20227;-79
2021/10/14 10:45:23;;;;;;;6.30;4.68;;;14.80;48.40;;;;;;5053691;28;20213;-80
2021/10/14 10:47:57;;;;;;;5.75;4.47;;;14.90;48.10;;;;;;5054413;28;20202;-80
2021/10/14 10:50:26;;;;;;;7.37;4.37;;;15.20;48.80;;;;;;5053844;28;20204;-79
2021/10/14 10:53:05;;;;;;;7.38;4.57;;;15.50;45.80;;;;;;5054316;28;20496;-79
2021/10/14 10:55:48;;;;;;;5.57;4.40;;;15.70;44.80;;;;;;5049138;28;20266;-81
2021/10/14 10:58:16;;;;;;;4.85;4.22;;;15.50;44.60;;;;;;5040703;28;20472;-80
2021/10/14 11:00:45;;;;;;;5.10;3.05;;;15.40;45.10;;;;;;5042643;28;20215;-80
2021/10/14 11:03:20;;;;;;;6.35;3.78;;;15.30;44.40;;;;;;5050098;28;20215;-80
2021/10/14 11:05:51;;;;;;;4.65;3.42;;;15.10;45.10;;;;;;5058514;28;20242;-77
2021/10/14 11:08:25;;;;;;;5.38;3.60;;;14.90;45.90;;;;;;5058468;28;20204;-78
2021/10/14 11:10:53;;;;;;;5.70;3.53;;;15.10;45.70;;;;;;5047987;28;20215;-80
2021/10/14 11:13:21;;;;;;;4.65;3.60;;;15.30;44.40;;;;;;5044566;28;20258;-79
2021/10/14 11:15:53;;;;;;;8.05;4.07;;;15.50;45.70;;;;;;5039578;28;20227;-79
2021/10/14 11:18:21;;;;;;;6.40;3.30;;;15.70;44.80;;;;;;5039247;28;20200;-81
2021/10/14 11:20:52;;;;;;;5.82;3.35;;;15.70;45.10;;;;;;5039285;28;20298;-79
2021/10/14 11:23:21;;;;;;;5.95;3.22;;;15.90;43.80;;;;;;5055213;28;20215;-78
2021/10/14 11:26:05;;;;;;;3.67;3.10;;;15.80;44.20;;;;;;5057796;28;20246;-78
2021/10/14 11:28:32;;;;;;;3.63;3.25;;;15.70;44.80;;;;;;5046110;28;20203;-80
2021/10/14 11:31:01;;;;;;;4.07;2.83;;;15.70;44.80;;;;;;5042224;28;20207;-79
2021/10/14 11:33:30;;;;;;;4.27;2.93;;;15.80;44.90;;;;;;5041351;28;20292;-80
2021/10/14 11:36:00;;;;;;;5.13;3.47;;;16.00;43.90;;;;;;5048620;28;20465;-80
2021/10/14 11:38:29;;;;;;;4.63;3.03;;;16.20;43.40;;;;;;5047039;28;20203;-81
2021/10/14 11:40:56;;;;;;;4.10;3.13;;;16.10;43.20;;;;;;5049456;28;20653;-80
2021/10/14 11:43:28;;;;;;;3.85;2.80;;;16.00;42.70;;;;;;5048844;28;20225;-80
2021/10/14 11:45:55;;;;;;;5.20;2.60;;;15.60;44.00;;;;;;5041740;28;20229;-78
2021/10/14 11:48:30;;;;;;;3.90;2.80;;;15.70;42.90;;;;;;5055952;28;20214;-78
2021/10/14 11:51:05;;;;;;;2.22;2.05;;;15.70;43.00;;;;;;5054396;28;20450;-78
2021/10/14 11:53:34;;;;;;;4.07;2.53;;;15.80;44.00;;;;;;5054839;28;20222;-80
2021/10/14 11:56:05;;;;;;;4.30;2.30;;;16.00;42.30;;;;;;5053644;28;20457;-79
2021/10/14 11:58:33;;;;;;;2.43;2.20;;;15.90;42.20;;;;;;5041844;28;20497;-80
2021/10/14 12:01:03;;;;;;;3.70;2.00;;;15.90;41.50;;;;;;5040243;28;20463;-80
2021/10/14 12:03:32;;;;;;;3.00;2.30;;;16.00;41.90;;;;;;5039508;28;20458;-80
2021/10/14 12:05:59;;;;;;;2.67;1.77;;;16.10;41.30;;;;;;5040601;28;20219;-80
2021/10/14 12:08:26;;;;;;;6.87;2.73;;;16.20;39.50;;;;;;5044049;28;20294;-80
2021/10/14 12:10:55;;;;;;;3.07;1.87;;;16.20;39.60;;;;;;5038672;28;20494;-79
2021/10/14 12:13:26;;;;;;;4.10;2.37;;;16.30;38.40;;;;;;5038935;28;20513;-80
2021/10/14 12:16:10;;;;;;;6.17;2.20;;;16.30;39.30;;;;;;5038814;28;20568;-80
2021/10/14 12:18:38;;;;;;;3.50;2.03;;;16.50;39.10;;;;;;5039102;28;20469;-81
2021/10/14 12:21:28;;;;;;;2.40;1.70;;;16.70;39.30;;;;;;5039656;28;20498;-79
2021/10/14 12:24:13;;;;;;;4.27;2.10;;;16.70;37.80;;;;;;5042128;28;21081;-80
2021/10/14 12:26:44;;;;;;;4.63;2.20;;;16.60;38.30;;;;;;5039321;28;20458;-81
2021/10/14 12:29:29;;;;;;;2.97;2.10;;;16.50;38.30;;;;;;5038867;28;20504;-80
2021/10/14 12:32:09;;;;;;;4.50;2.17;;;16.40;39.30;;;;;;5039166;28;20572;-81
2021/10/14 12:34:54;;;;;;;2.90;2.00;;;16.60;39.10;;;;;;5038223;28;20893;-81
2021/10/14 12:37:27;;;;;;;4.60;2.40;;;16.70;39.50;;;;;;5038741;28;20436;-80
2021/10/14 12:40:15;;;;;;;9.97;3.37;;;16.80;39.30;;;;;;5038408;28;20522;-80
2021/10/14 12:45:40;;;;;;;4.47;2.20;;;16.80;39.20;;;;;;5054851;28;20474;-79
2021/10/14 12:48:12;;;;;;;4.90;2.53;;;17.00;39.10;;;;;;5047123;28;20545;-80
2021/10/14 12:51:04;;;;;;;4.00;2.43;;;16.90;37.70;;;;;;5037850;28;20451;-81
2021/10/14 12:53:38;;;;;;;3.40;1.83;;;16.60;39.00;;;;;;5038740;28;20959;-81
2021/10/14 12:56:05;;;;;;;3.90;2.67;;;16.80;39.40;;;;;;5038377;28;20429;-81
2021/10/14 12:58:34;;;;;;;3.57;2.53;;;17.00;38.60;;;;;;5038432;28;20456;-82
2021/10/14 13:01:03;;;;;;;3.10;2.30;;;16.70;39.10;;;;;;5037994;28;20483;-81
2021/10/14 13:03:31;;;;;;;7.00;2.63;;;16.60;38.90;;;;;;5038644;28;20997;-81